Time;durP1;ratioP1;P1;durP2;ratioP2;P2;SDS_P1;SDS_P2;PMS_P1;PMS_P2;Temp;Humidity;BMP_temperature;BMP_pressure;BME280_temperature;BME280_humidity;BME280_pressure;Samples;Min_cycle;Max_cycle;Signal;HPM_P1;HPM_P2
2022/11/05 00:19:05;;;;;;;24.80;18.10;;;;;;;9.49;84.25;98842.65;208163;1297;142384;-67
2022/11/05 00:29:33;;;;;;;32.30;20.50;;;;;;;9.56;84.44;98844.23;210090;1296;223138;-68
2022/11/05 00:34:39;;;;;;;27.10;18.00;;;;;;;9.60;84.40;98854.16;210131;1286;140852;-68
2022/11/05 00:39:44;;;;;;;27.50;17.80;;;;;;;9.62;84.68;98853.56;209430;1296;141672;-68
2022/11/05 00:45:00;;;;;;;23.60;16.70;;;;;;;9.69;84.71;98858.74;206388;1287;140286;-67
2022/11/05 00:50:05;;;;;;;27.00;18.40;;;;;;;9.72;84.56;98855.59;206704;1287;141511;-68
2022/11/05 00:55:09;;;;;;;28.00;16.20;;;;;;;9.67;84.61;98859.68;206693;1294;141150;-68
2022/11/05 01:00:14;;;;;;;34.70;18.80;;;;;;;9.58;84.92;98864.52;206701;1297;142924;-68
2022/11/05 01:05:17;;;;;;;30.60;17.80;;;;;;;9.59;84.89;98868.63;210097;1296;140122;-68
2022/11/05 01:10:21;;;;;;;29.90;18.70;;;;;;;9.63;84.79;98873.69;210085;1290;141413;-68
2022/11/05 01:15:26;;;;;;;24.90;16.50;;;;;;;9.58;84.71;98873.20;210064;1303;141539;-69
2022/11/05 01:20:31;;;;;;;20.90;14.50;;;;;;;9.52;84.75;98889.23;209992;1295;140304;-68
2022/11/05 01:25:35;;;;;;;31.50;19.50;;;;;;;9.47;84.67;98890.64;210021;1292;140609;-68
2022/11/05 01:30:39;;;;;;;29.60;18.20;;;;;;;9.43;85.02;98898.00;209980;1295;140686;-68
2022/11/05 01:35:44;;;;;;;23.40;16.80;;;;;;;9.47;84.99;98901.71;210034;1299;139976;-69
2022/11/05 01:40:49;;;;;;;31.20;17.10;;;;;;;9.43;84.99;98899.06;210069;1296;140870;-69
2022/11/05 01:49:39;;;;;;;28.50;18.80;;;;;;;9.35;85.19;98889.42;209186;1333;636155;-69
2022/11/05 01:54:44;;;;;;;31.10;21.20;;;;;;;9.38;85.37;98890.37;208328;1307;140438;-70
2022/11/05 01:59:54;;;;;;;36.70;20.70;;;;;;;9.39;85.31;98886.40;205636;1291;197713;-69
2022/11/05 02:05:03;;;;;;;29.70;21.60;;;;;;;9.37;85.41;98897.59;208822;1285;139086;-69
2022/11/05 02:10:10;;;;;;;30.90;22.30;;;;;;;9.35;85.40;98902.89;210484;1295;140007;-69
2022/11/05 02:15:24;;;;;;;29.40;20.00;;;;;;;9.35;85.60;98909.68;210480;1292;139904;-70
2022/11/05 02:20:34;;;;;;;32.40;17.90;;;;;;;9.34;85.54;98913.92;209844;1294;140774;-69
2022/11/05 02:26:10;;;;;;;29.70;21.00;;;;;;;9.38;85.78;98917.29;209491;1285;139224;-69
2022/11/05 02:31:35;;;;;;;29.30;20.90;;;;;;;9.43;85.81;98915.81;208753;1278;140046;-69
2022/11/05 02:37:05;;;;;;;35.70;23.00;;;;;;;9.42;85.91;98911.81;207558;1295;140444;-69
2022/11/05 02:42:47;;;;;;;35.90;21.40;;;;;;;9.47;86.16;98917.83;207295;1287;139602;-69
2022/11/05 02:48:25;;;;;;;29.00;17.20;;;;;;;9.49;86.18;98911.55;210423;1294;223098;-69
2022/11/05 02:53:43;;;;;;;35.20;20.60;;;;;;;9.52;86.15;98907.17;210384;1294;141841;-70
2022/11/05 02:58:47;;;;;;;28.20;17.30;;;;;;;9.61;86.29;98914.85;210290;1293;140624;-69
2022/11/05 03:03:56;;;;;;;28.00;18.70;;;;;;;9.66;86.23;98917.89;209977;1295;140310;-70
2022/11/05 03:09:28;;;;;;;30.00;20.70;;;;;;;9.72;86.23;98921.16;210446;1302;141553;-69
2022/11/05 03:14:32;;;;;;;25.50;17.50;;;;;;;9.70;86.23;98944.19;210245;1295;139832;-70
2022/11/05 03:19:57;;;;;;;24.60;17.70;;;;;;;9.70;86.21;98962.08;210439;1301;139738;-69
2022/11/05 03:25:07;;;;;;;22.50;16.60;;;;;;;9.75;86.52;98976.61;210250;1302;140128;-70
2022/11/05 03:30:13;;;;;;;28.80;17.90;;;;;;;9.82;86.38;98988.12;210325;1295;141790;-69
2022/11/05 03:35:23;;;;;;;25.80;19.70;;;;;;;9.89;86.54;98982.98;210569;1294;140801;-69
2022/11/05 03:40:32;;;;;;;26.00;18.10;;;;;;;10.00;86.56;98985.63;210410;1295;142013;-69
2022/11/05 03:45:59;;;;;;;28.90;18.40;;;;;;;10.06;86.25;98983.67;210402;1291;140810;-69
2022/11/05 03:51:09;;;;;;;21.80;15.90;;;;;;;10.15;86.79;99000.70;210217;1294;139031;-70
2022/11/05 03:56:55;;;;;;;24.20;18.20;;;;;;;10.19;86.21;99029.80;210370;1286;226374;-70
2022/11/05 04:02:01;;;;;;;24.30;16.00;;;;;;;10.16;86.18;98996.62;209820;1294;246215;-70
2022/11/05 04:17:54;;;;;;;14.00;10.10;;;;;;;10.28;86.32;99050.00;210543;1294;141613;-69
2022/11/05 04:30:17;;;;;;;15.30;10.60;;;;;;;10.37;86.23;99054.00;210452;1295;140881;-69
2022/11/05 04:33:50;;;;;;;13.40;9.20;;;;;;;10.36;85.94;99053.51;210488;1301;140328;-70
2022/11/05 04:38:54;;;;;;;12.30;9.10;;;;;;;10.41;86.03;99068.63;209316;1294;140673;-69
2022/11/05 04:43:59;;;;;;;10.40;7.70;;;;;;;10.41;85.84;99072.20;207005;1296;140511;-69
2022/11/05 04:49:03;;;;;;;11.40;8.30;;;;;;;10.32;85.79;99079.61;208835;1295;141774;-69
2022/11/05 04:54:07;;;;;;;10.30;8.70;;;;;;;10.34;86.25;99080.60;210050;1291;140018;-69
2022/11/05 04:59:12;;;;;;;12.00;8.40;;;;;;;10.41;86.24;99082.32;207200;1300;140185;-69
2022/11/05 05:04:16;;;;;;;14.00;9.60;;;;;;;10.44;86.18;99079.63;209921;1295;140136;-69
2022/11/05 05:09:21;;;;;;;8.80;7.50;;;;;;;10.41;86.19;99088.88;207651;1294;139777;-69
2022/11/05 05:14:25;;;;;;;13.80;9.40;;;;;;;10.38;86.07;99095.04;208973;1287;139658;-69
2022/11/05 05:19:29;;;;;;;13.60;10.00;;;;;;;10.37;86.09;99105.63;210227;1291;140138;-69
2022/11/05 05:24:32;;;;;;;12.70;8.50;;;;;;;10.41;86.10;99111.73;210072;1301;140749;-70
2022/11/05 05:29:36;;;;;;;10.00;7.80;;;;;;;10.45;86.20;99111.30;210277;1295;141049;-70
2022/11/05 05:34:41;;;;;;;12.40;8.60;;;;;;;10.50;86.30;99113.23;210226;1295;140520;-70
2022/11/05 05:39:46;;;;;;;14.30;9.70;;;;;;;10.53;86.21;99121.08;210218;1296;141057;-70
2022/11/05 05:44:51;;;;;;;14.80;11.70;;;;;;;10.54;86.25;99127.61;210210;1295;140977;-70
2022/11/05 05:49:55;;;;;;;14.90;9.80;;;;;;;10.57;86.23;99138.68;210194;1294;140777;-70
2022/11/05 05:54:59;;;;;;;13.60;8.30;;;;;;;10.65;86.43;99148.75;210316;1295;141653;-69
2022/11/05 06:00:04;;;;;;;15.40;10.70;;;;;;;10.68;86.12;99148.00;210361;1295;161795;-69
2022/11/05 06:05:08;;;;;;;14.30;11.60;;;;;;;10.69;86.07;99156.42;209233;1294;141793;-69
2022/11/05 06:10:12;;;;;;;14.30;9.60;;;;;;;10.74;86.09;99162.11;208428;1284;140149;-70
2022/11/05 06:15:17;;;;;;;12.60;10.60;;;;;;;10.79;86.27;99162.70;210211;1286;140030;-67
2022/11/05 06:20:23;;;;;;;20.00;14.30;;;;;;;10.78;86.26;99171.81;210104;1293;139735;-67
2022/11/05 06:25:28;;;;;;;45.00;24.20;;;;;;;10.70;85.69;99181.80;210074;1295;140432;-70
2022/11/05 06:30:31;;;;;;;40.60;24.10;;;;;;;10.61;85.65;99185.59;210182;1288;140122;-67
2022/11/05 06:35:35;;;;;;;47.00;25.50;;;;;;;10.54;85.62;99187.14;210223;1291;141968;-67
2022/11/05 06:40:39;;;;;;;42.50;24.90;;;;;;;10.51;85.77;99194.02;210402;1301;142420;-69
2022/11/05 06:45:44;;;;;;;45.80;24.90;;;;;;;10.47;85.51;99209.39;210318;1295;141794;-67
2022/11/05 06:50:48;;;;;;;47.60;26.60;;;;;;;10.41;85.38;99222.66;210285;1294;140837;-66
2022/11/05 06:55:52;;;;;;;55.60;29.00;;;;;;;10.37;85.27;99238.10;210234;1288;141708;-68
2022/11/05 07:01:09;;;;;;;46.40;27.00;;;;;;;10.30;85.67;99261.75;210047;1294;141010;-70
2022/11/05 07:06:14;;;;;;;49.40;28.30;;;;;;;10.27;85.64;99268.38;209851;1301;139555;-69
2022/11/05 07:11:19;;;;;;;45.40;25.50;;;;;;;10.30;85.84;99261.13;209424;1281;140453;-69
2022/11/05 07:16:22;;;;;;;45.80;25.30;;;;;;;10.31;85.54;99268.59;209663;1296;160375;-70
2022/11/05 07:21:27;;;;;;;54.70;23.40;;;;;;;10.33;85.52;99284.02;210156;1295;141191;-69
2022/11/05 07:26:30;;;;;;;52.20;27.80;;;;;;;10.30;85.46;99295.55;210134;1295;141272;-69
2022/11/05 07:31:38;;;;;;;40.50;23.70;;;;;;;10.36;85.84;99310.13;210152;1294;141017;-69
2022/11/05 07:36:42;;;;;;;51.30;27.20;;;;;;;10.37;85.71;99323.73;210283;1295;162294;-68
2022/11/05 07:41:50;;;;;;;48.80;27.40;;;;;;;10.40;85.79;99332.60;210197;1295;140607;-69
2022/11/05 07:46:54;;;;;;;43.60;26.00;;;;;;;10.44;85.76;99336.94;210291;1295;140903;-69
2022/11/05 07:51:59;;;;;;;48.00;27.00;;;;;;;10.55;85.85;99347.05;210228;1295;142367;-68
2022/11/05 07:57:03;;;;;;;52.50;28.20;;;;;;;10.60;85.69;99351.36;210099;1287;140154;-69
2022/11/05 08:02:10;;;;;;;54.20;27.10;;;;;;;10.62;85.70;99345.41;209385;1293;139677;-67
2022/11/05 08:07:15;;;;;;;54.80;27.60;;;;;;;10.62;85.57;99343.60;207187;1295;141778;-67
2022/11/05 08:12:19;;;;;;;51.70;25.10;;;;;;;10.65;85.57;99342.91;207180;1294;140453;-67
2022/11/05 08:17:24;;;;;;;48.70;20.90;;;;;;;10.71;85.31;99349.05;210159;1285;140616;-68
2022/11/05 08:22:28;;;;;;;44.30;22.40;;;;;;;10.64;85.11;99360.36;210047;1295;140590;-68
2022/11/05 08:27:32;;;;;;;36.40;24.40;;;;;;;10.64;85.00;99368.95;210176;1288;140090;-68
2022/11/05 08:32:36;;;;;;;40.70;21.20;;;;;;;10.62;85.14;99376.08;210202;1294;139882;-71
2022/11/05 08:37:41;;;;;;;46.40;23.60;;;;;;;10.62;85.22;99385.77;210339;1295;140455;-68
2022/11/05 08:42:45;;;;;;;41.00;23.00;;;;;;;10.64;85.17;99386.45;210311;1300;140411;-67
2022/11/05 08:47:50;;;;;;;44.80;23.10;;;;;;;10.68;85.17;99389.34;210020;1301;151267;-67
2022/11/05 08:52:55;;;;;;;38.20;22.20;;;;;;;10.71;84.85;99400.72;206975;1299;140992;-67
2022/11/05 08:58:03;;;;;;;43.20;21.70;;;;;;;10.69;84.81;99406.92;210255;1291;140409;-67
2022/11/05 09:03:08;;;;;;;34.70;20.00;;;;;;;10.64;84.87;99413.57;210330;1298;141649;-67
2022/11/05 09:08:16;;;;;;;31.50;21.60;;;;;;;10.66;84.76;99425.11;208842;1294;140555;-67
2022/11/05 09:13:21;;;;;;;;;;;;;;;10.64;84.66;99437.71;209189;1296;140065;-69
2022/11/05 09:18:27;;;;;;;32.10;19.80;;;;;;;10.66;84.81;99445.83;210929;1297;125805;-69
2022/11/05 09:23:31;;;;;;;32.80;17.60;;;;;;;10.73;84.87;99448.05;210370;1294;141065;-69
2022/11/05 09:28:36;;;;;;;27.00;17.30;;;;;;;10.82;84.90;99455.06;209107;1292;141414;-70
2022/11/05 09:33:40;;;;;;;26.40;17.40;;;;;;;10.88;84.74;99468.50;207042;1288;142377;-69
2022/11/05 09:38:45;;;;;;;23.50;16.80;;;;;;;10.89;84.58;99479.92;207215;1299;141433;-69
2022/11/05 09:44:00;;;;;;;23.10;16.10;;;;;;;10.89;84.33;99486.64;207198;1289;140098;-69
2022/11/05 09:49:23;;;;;;;21.80;15.40;;;;;;;10.91;84.45;99484.02;207116;1292;140391;-68
2022/11/05 09:54:33;;;;;;;24.50;16.10;;;;;;;10.87;84.11;99491.83;207144;1296;141010;-68
2022/11/05 09:59:47;;;;;;;19.50;14.30;;;;;;;10.81;84.40;99491.79;207171;1294;140911;-69
2022/11/05 10:04:58;;;;;;;18.50;13.70;;;;;;;10.72;83.97;99499.80;207088;1296;141506;-68
2022/11/05 10:10:49;;;;;;;18.60;13.10;;;;;;;10.64;83.92;99506.44;207346;1301;139911;-68
2022/11/05 10:16:06;;;;;;;17.00;13.10;;;;;;;10.59;83.91;99505.77;206515;1301;141119;-69
2022/11/05 10:21:16;;;;;;;16.80;13.70;;;;;;;10.54;83.77;99515.85;207145;1289;140283;-68
2022/11/05 10:26:35;;;;;;;16.00;12.00;;;;;;;10.53;83.85;99518.83;207183;1285;140133;-68
2022/11/05 10:31:41;;;;;;;14.30;12.30;;;;;;;10.55;83.94;99519.13;207017;1295;139945;-70
2022/11/05 10:36:44;;;;;;;17.60;13.00;;;;;;;10.52;83.99;99532.98;209818;1284;139852;-69
2022/11/05 10:42:09;;;;;;;16.90;11.40;;;;;;;10.53;83.88;99535.02;210219;1299;141062;-69
2022/11/05 10:47:54;;;;;;;15.00;11.60;;;;;;;10.56;83.69;99537.05;210448;1302;142396;-69
2022/11/05 10:53:01;;;;;;;16.90;11.10;;;;;;;10.60;83.84;99553.61;210190;1294;224690;-69
2022/11/05 10:58:08;;;;;;;20.50;13.30;;;;;;;10.62;83.87;99562.06;208501;1294;140456;-69
2022/11/05 11:03:40;;;;;;;18.10;13.50;;;;;;;10.60;83.72;99563.61;207040;1295;140357;-69
2022/11/05 11:08:47;;;;;;;13.90;10.60;;;;;;;10.53;83.32;99553.05;207223;1287;141006;-67
2022/11/05 11:14:11;;;;;;;18.00;11.90;;;;;;;10.50;83.48;99553.37;207049;1296;140988;-69
2022/11/05 11:19:24;;;;;;;11.50;9.30;;;;;;;10.48;83.66;99556.15;210068;1295;139344;-68
2022/11/05 11:24:30;;;;;;;12.00;9.90;;;;;;;10.46;83.47;99561.40;210435;1301;139861;-69
2022/11/05 11:29:39;;;;;;;13.20;8.90;;;;;;;10.49;83.57;99566.17;210413;1298;139311;-70
2022/11/05 11:34:53;;;;;;;15.00;8.50;;;;;;;10.51;83.45;99574.33;210305;1294;245363;-70
2022/11/05 11:40:03;;;;;;;12.80;8.60;;;;;;;10.49;82.90;99588.31;210316;1296;140596;-69
2022/11/05 11:45:26;;;;;;;9.50;6.50;;;;;;;10.45;82.77;99576.76;210485;1297;143053;-70
2022/11/05 11:50:33;;;;;;;7.10;6.40;;;;;;;10.44;83.01;99578.66;210436;1293;140257;-69
2022/11/05 11:55:37;;;;;;;6.30;5.70;;;;;;;10.45;82.96;99574.38;210297;1299;139064;-68
2022/11/05 12:00:49;;;;;;;6.00;5.40;;;;;;;10.52;82.95;99575.35;210355;1301;141428;-69
2022/11/05 12:06:13;;;;;;;8.80;6.00;;;;;;;10.62;82.78;99581.25;210432;1295;140079;-69
2022/11/05 12:11:28;;;;;;;6.70;5.10;;;;;;;10.69;82.93;99580.59;210562;1291;141228;-69
2022/11/05 12:16:41;;;;;;;7.80;6.50;;;;;;;10.74;82.58;99593.46;210313;1297;139259;-68
2022/11/05 12:22:32;;;;;;;8.00;6.40;;;;;;;10.77;82.35;99600.66;210364;1294;140294;-68
2022/11/05 12:28:06;;;;;;;6.90;5.80;;;;;;;10.79;82.42;99597.30;207243;1290;139254;-68
2022/11/05 12:33:13;;;;;;;5.70;5.00;;;;;;;10.76;82.11;99600.73;209310;1294;217803;-69
2022/11/05 12:38:25;;;;;;;6.00;5.50;;;;;;;10.67;82.26;99615.70;210453;1287;142724;-68
2022/11/05 12:44:11;;;;;;;6.20;4.40;;;;;;;10.68;82.24;99622.27;207239;1294;139574;-67
2022/11/05 12:49:18;;;;;;;12.00;7.10;;;;;;;10.70;82.20;99629.98;210322;1295;142371;-68
2022/11/05 12:54:54;;;;;;;6.30;3.60;;;;;;;10.71;82.06;99630.20;210422;1294;141394;-69
2022/11/05 13:00:19;;;;;;;6.80;3.50;;;;;;;10.64;81.80;99635.90;210430;1295;141209;-67
2022/11/05 13:05:38;;;;;;;6.90;2.90;;;;;;;10.61;81.51;99643.23;210539;1294;139825;-67
2022/11/05 13:11:16;;;;;;;3.80;2.70;;;;;;;10.61;81.24;99644.73;207375;1290;140238;-66
2022/11/05 13:16:36;;;;;;;4.90;3.50;;;;;;;10.55;80.94;99658.68;209507;1295;140314;-66
2022/11/05 13:21:44;;;;;;;3.50;2.50;;;;;;;10.50;81.06;99668.33;208466;1300;139905;-66
2022/11/05 13:26:51;;;;;;;3.80;2.40;;;;;;;10.45;81.03;99676.91;207362;1302;139204;-68
2022/11/05 13:32:07;;;;;;;3.80;2.30;;;;;;;10.42;80.85;99691.14;210427;1302;141458;-68
2022/11/05 13:43:29;;;;;;;7.90;2.60;;;;;;;10.47;80.94;99711.92;210383;1295;140473;-68
2022/11/05 13:48:55;;;;;;;3.60;2.00;;;;;;;10.51;80.65;99718.06;210472;1295;139661;-71
2022/11/05 13:54:11;;;;;;;2.70;2.00;;;;;;;10.50;80.41;99719.59;210576;1295;140117;-70
2022/11/05 13:59:35;;;;;;;2.20;1.50;;;;;;;10.47;80.32;99717.51;210466;1295;139754;-70
2022/11/05 14:04:46;;;;;;;2.40;1.70;;;;;;;10.42;80.23;99729.40;210138;1285;140512;-68
2022/11/05 14:10:25;;;;;;;14.30;7.30;;;;;;;10.46;80.41;99739.25;210246;1293;141433;-71
2022/11/05 14:15:31;;;;;;;5.90;3.80;;;;;;;10.54;80.22;99744.69;209066;1301;140368;-71
2022/11/05 14:20:35;;;;;;;2.50;2.30;;;;;;;10.53;80.22;99749.27;210351;1295;140030;-68
2022/11/05 14:25:39;;;;;;;5.60;1.80;;;;;;;10.50;80.09;99757.93;210343;1296;140086;-68
2022/11/05 14:30:47;;;;;;;3.80;2.60;;;;;;;10.50;80.02;99761.17;209623;1294;140633;-68
2022/11/05 14:36:19;;;;;;;4.30;2.50;;;;;;;10.49;79.96;99768.89;210498;1292;140630;-68
2022/11/05 14:41:23;;;;;;;3.20;2.90;;;;;;;10.48;80.15;99773.51;210576;1292;139250;-68
2022/11/05 14:46:46;;;;;;;6.60;3.30;;;;;;;10.47;80.23;99774.29;210329;1288;140384;-68
2022/11/05 14:51:57;;;;;;;7.90;3.40;;;;;;;10.44;79.93;99777.95;210206;1294;141166;-71
2022/11/05 14:57:02;;;;;;;6.10;2.80;;;;;;;10.40;79.99;99783.84;209009;1294;142132;-69
2022/11/05 15:02:19;;;;;;;6.30;3.10;;;;;;;10.34;80.17;99786.39;206832;1288;140568;-68
2022/11/05 15:07:35;;;;;;;5.60;2.70;;;;;;;10.31;80.32;99792.84;207133;1293;140168;-74
2022/11/05 15:12:49;;;;;;;10.60;4.80;;;;;;;10.24;80.29;99800.04;210333;1293;141089;-69
2022/11/05 15:18:00;;;;;;;6.70;3.00;;;;;;;10.22;80.17;99813.02;210277;1299;142735;-68
2022/11/05 15:23:06;;;;;;;6.20;3.70;;;;;;;10.20;80.33;99826.36;210182;1295;140020;-66
2022/11/05 15:28:16;;;;;;;10.10;3.70;;;;;;;10.17;80.40;99832.38;210213;1302;140635;-69
2022/11/05 15:33:24;;;;;;;7.00;3.40;;;;;;;10.19;80.38;99838.30;210145;1295;142002;-67
2022/11/05 15:38:32;;;;;;;12.80;4.80;;;;;;;10.24;80.53;99838.49;210179;1297;139999;-68
2022/11/05 15:43:45;;;;;;;6.30;3.30;;;;;;;10.25;80.56;99836.30;210180;1294;139812;-67
2022/11/05 15:48:53;;;;;;;7.40;4.20;;;;;;;10.24;80.54;99845.65;208388;1274;151556;-67
2022/11/05 15:54:03;;;;;;;11.00;4.30;;;;;;;10.25;80.69;99851.95;210098;1294;140935;-70
2022/11/05 15:59:29;;;;;;;6.50;4.20;;;;;;;10.28;80.55;99857.94;210217;1293;141651;-68
2022/11/05 16:04:33;;;;;;;11.70;4.30;;;;;;;10.27;80.47;99859.30;210098;1281;139640;-65
2022/11/05 16:09:42;;;;;;;8.90;5.20;;;;;;;10.27;80.57;99866.77;210273;1294;141354;-66
2022/11/05 16:14:58;;;;;;;11.90;5.10;;;;;;;10.25;80.52;99873.88;210031;1294;139490;-68
2022/11/05 16:20:16;;;;;;;14.60;6.40;;;;;;;10.25;80.60;99876.47;210185;1294;140440;-64
2022/11/05 16:25:27;;;;;;;9.40;6.80;;;;;;;10.29;80.75;99881.73;210137;1295;141574;-66
2022/11/05 16:30:33;;;;;;;10.20;5.90;;;;;;;10.28;80.74;99893.55;209696;1298;139573;-67
2022/11/05 16:35:46;;;;;;;11.60;7.00;;;;;;;10.24;80.77;99897.96;208080;1293;140920;-68
2022/11/05 16:40:51;;;;;;;12.90;7.00;;;;;;;10.20;80.68;99899.11;210011;1295;223620;-68
2022/11/05 16:45:58;;;;;;;14.90;8.20;;;;;;;10.19;80.66;99910.27;210226;1295;139805;-69
2022/11/05 16:51:03;;;;;;;10.10;6.80;;;;;;;10.18;80.69;99916.51;209436;1295;139676;-68
2022/11/05 16:56:17;;;;;;;15.50;7.80;;;;;;;10.14;80.93;99916.34;210142;1294;139637;-65
2022/11/05 17:01:23;;;;;;;10.90;5.80;;;;;;;10.11;80.92;99926.84;208648;1302;139647;-68
2022/11/05 17:06:27;;;;;;;38.30;20.50;;;;;;;10.08;81.09;99941.59;207776;1295;140501;-65
2022/11/05 17:11:32;;;;;;;23.80;8.80;;;;;;;10.06;80.98;99945.33;206747;1288;140686;-71
2022/11/05 17:16:38;;;;;;;17.30;8.40;;;;;;;10.04;81.14;99945.72;206738;1288;140918;-67
2022/11/05 17:21:43;;;;;;;16.00;6.50;;;;;;;9.98;81.05;99952.56;210114;1299;140312;-67
2022/11/05 17:26:48;;;;;;;14.90;7.90;;;;;;;9.92;81.07;99959.27;209989;1291;139174;-71
2022/11/05 17:31:52;;;;;;;10.50;5.70;;;;;;;9.93;80.93;99966.48;210093;1295;141267;-71
2022/11/05 17:36:57;;;;;;;7.40;6.50;;;;;;;9.94;81.00;99971.26;210090;1295;140416;-72
2022/11/05 17:42:01;;;;;;;15.70;7.20;;;;;;;9.89;80.71;99979.70;210206;1295;139828;-73
2022/11/05 17:47:05;;;;;;;13.40;7.80;;;;;;;9.84;80.79;99976.08;209991;1295;139881;-70
2022/11/05 17:52:08;;;;;;;16.20;7.90;;;;;;;9.84;80.83;99981.86;210249;1288;141839;-72
2022/11/05 17:57:12;;;;;;;20.40;8.70;;;;;;;9.82;80.72;99980.11;210248;1294;140525;-71
2022/11/05 18:02:16;;;;;;;19.20;10.10;;;;;;;9.80;80.83;99987.05;210110;1295;139380;-72
2022/11/05 18:07:19;;;;;;;13.10;9.30;;;;;;;9.81;81.05;99997.08;210179;1296;139040;-68
2022/11/05 18:12:24;;;;;;;16.90;8.60;;;;;;;9.82;80.76;99997.21;208736;1295;139734;-70
2022/11/05 18:17:27;;;;;;;20.20;9.90;;;;;;;9.77;80.76;99999.55;207010;1288;140140;-69
2022/11/05 18:22:31;;;;;;;16.80;9.20;;;;;;;9.68;80.55;99993.70;207058;1287;140173;-69
2022/11/05 18:27:36;;;;;;;25.60;10.70;;;;;;;9.60;80.88;99995.37;207160;1294;141185;-68
2022/11/05 18:32:42;;;;;;;20.20;10.50;;;;;;;9.56;80.85;100000.29;209079;1301;140667;-69
2022/11/05 18:37:46;;;;;;;15.40;9.20;;;;;;;9.51;80.83;100005.73;207858;1297;142015;-69
2022/11/05 18:42:49;;;;;;;15.20;9.50;;;;;;;9.49;81.00;100008.17;210116;1294;139608;-69
2022/11/05 18:47:55;;;;;;;22.80;13.80;;;;;;;9.50;81.23;100004.98;209591;1295;139723;-70
2022/11/05 18:52:58;;;;;;;18.90;9.60;;;;;;;9.47;80.91;100006.48;208593;1287;140864;-69
2022/11/05 18:58:03;;;;;;;18.10;7.60;;;;;;;9.44;81.06;100004.98;210238;1297;142043;-68
2022/11/05 19:03:07;;;;;;;19.80;8.60;;;;;;;9.47;81.00;100009.04;210049;1298;142670;-69
2022/11/05 19:08:13;;;;;;;25.40;10.60;;;;;;;9.48;80.91;100009.22;207778;1287;140300;-69
2022/11/05 19:13:18;;;;;;;21.40;9.90;;;;;;;9.43;81.02;100012.18;210081;1294;140742;-69
2022/11/05 19:18:21;;;;;;;15.20;9.10;;;;;;;9.40;80.94;100016.23;210096;1281;140103;-69
2022/11/05 19:23:25;;;;;;;17.10;8.90;;;;;;;9.39;80.89;100020.41;210112;1288;139997;-69
2022/11/05 19:28:29;;;;;;;22.40;9.10;;;;;;;9.38;80.78;100035.27;210194;1294;141112;-69
2022/11/05 19:33:33;;;;;;;30.10;9.10;;;;;;;9.33;80.74;100042.13;206793;1295;141491;-69
2022/11/05 19:38:37;;;;;;;25.70;10.30;;;;;;;9.25;80.68;100046.23;209341;1295;140287;-69
2022/11/05 19:43:41;;;;;;;40.90;17.30;;;;;;;9.22;80.93;100049.33;209969;1295;141084;-69
2022/11/05 19:48:45;;;;;;;24.70;12.30;;;;;;;9.19;80.84;100052.54;210299;1295;142143;-69
2022/11/05 19:53:52;;;;;;;20.10;9.90;;;;;;;9.14;80.72;100069.23;210260;1302;139656;-69
2022/11/05 19:58:57;;;;;;;21.70;10.70;;;;;;;9.04;80.60;100075.42;210202;1301;139013;-69
2022/11/05 20:04:03;;;;;;;28.10;11.20;;;;;;;9.01;80.85;100076.75;210090;1295;141211;-69
2022/11/05 20:09:10;;;;;;;14.20;8.20;;;;;;;8.99;80.65;100086.95;210131;1298;141353;-69
2022/11/05 20:14:26;;;;;;;18.30;8.50;;;;;;;8.95;80.82;100094.05;210209;1290;140259;-69
2022/11/05 20:19:29;;;;;;;18.80;8.70;;;;;;;8.93;80.91;100097.49;210220;1295;140771;-69
2022/11/05 20:24:33;;;;;;;17.60;10.00;;;;;;;8.89;80.64;100096.55;207693;1294;154901;-70
2022/11/05 20:29:36;;;;;;;34.00;13.00;;;;;;;8.88;80.77;100103.43;210210;1294;140984;-69
2022/11/05 20:34:40;;;;;;;29.30;15.00;;;;;;;8.83;80.80;100093.02;210057;1299;139315;-69
2022/11/05 20:39:45;;;;;;;24.10;13.70;;;;;;;8.75;80.73;100095.58;208408;1290;140063;-68
2022/11/05 20:44:48;;;;;;;29.40;14.30;;;;;;;8.71;80.70;100099.25;210003;1288;140447;-70
2022/11/05 20:49:52;;;;;;;27.50;16.90;;;;;;;8.67;80.85;100097.63;210209;1288;140125;-70
2022/11/05 20:54:55;;;;;;;20.70;10.40;;;;;;;8.62;80.74;100105.84;210270;1288;142657;-69
2022/11/05 20:59:59;;;;;;;13.90;8.80;;;;;;;8.50;80.57;100110.20;209548;1287;163357;-69
2022/11/05 21:05:04;;;;;;;19.50;11.00;;;;;;;8.38;80.52;100111.10;206665;1295;140293;-69
2022/11/05 21:10:07;;;;;;;19.40;9.30;;;;;;;8.30;80.67;100119.89;208535;1287;140574;-70
2022/11/05 21:15:11;;;;;;;13.30;8.10;;;;;;;8.27;80.84;100122.68;208557;1293;141070;-69
2022/11/05 21:20:16;;;;;;;14.40;8.20;;;;;;;8.21;80.46;100122.44;209847;1294;140989;-68
2022/11/05 21:25:21;;;;;;;16.40;10.40;;;;;;;8.16;80.69;100122.11;209342;1294;140588;-67
2022/11/05 21:30:25;;;;;;;20.70;9.00;;;;;;;8.10;80.86;100122.05;210069;1297;141571;-70
2022/11/05 21:35:31;;;;;;;18.50;9.30;;;;;;;8.00;80.46;100121.61;208600;1294;142400;-69
2022/11/05 21:40:36;;;;;;;13.90;8.30;;;;;;;7.91;80.16;100123.66;206997;1293;141571;-69
2022/11/05 21:45:42;;;;;;;13.30;8.60;;;;;;;7.80;80.38;100128.41;207074;1295;141923;-69
2022/11/05 22:01:43;;;;;;;19.10;10.60;;;;;;;7.70;81.09;100135.64;210329;1294;140283;-69
2022/11/05 22:06:47;;;;;;;13.10;8.80;;;;;;;7.66;80.98;100139.08;210259;1294;140882;-69
2022/11/05 22:11:52;;;;;;;12.30;7.70;;;;;;;7.63;81.11;100142.36;210181;1295;140371;-70
2022/11/05 22:16:57;;;;;;;14.70;9.40;;;;;;;7.58;81.00;100146.77;210096;1295;141479;-69
2022/11/05 22:22:02;;;;;;;26.10;12.60;;;;;;;7.57;80.73;100144.48;209039;1294;142072;-70
2022/11/05 22:27:10;;;;;;;16.90;10.10;;;;;;;7.50;80.58;100151.75;208610;1301;140838;-69
2022/11/05 22:32:15;;;;;;;20.30;12.10;;;;;;;7.40;80.49;100158.06;210011;1294;140063;-69
2022/11/05 22:37:20;;;;;;;18.60;11.40;;;;;;;7.31;80.48;100161.91;210210;1285;141141;-69
2022/11/05 22:42:24;;;;;;;19.40;11.00;;;;;;;7.25;80.56;100161.37;210326;1294;139990;-69
2022/11/05 22:47:27;;;;;;;21.20;10.50;;;;;;;7.14;80.56;100170.28;208576;1302;140319;-69
2022/11/05 22:52:31;;;;;;;17.70;10.30;;;;;;;7.08;80.84;100166.84;207099;1281;140011;-69
2022/11/05 22:57:35;;;;;;;19.90;10.40;;;;;;;7.06;81.21;100167.85;207640;1295;141129;-69
2022/11/05 23:02:39;;;;;;;10.70;8.40;;;;;;;7.01;81.16;100164.23;208976;1288;140729;-70
2022/11/05 23:13:06;;;;;;;15.60;9.40;;;;;;;6.91;81.05;100172.45;207089;1295;224323;-68
2022/11/05 23:28:55;;;;;;;17.20;9.50;;;;;;;6.75;81.27;100180.41;210348;1294;141013;-69
2022/11/05 23:33:59;;;;;;;17.50;10.30;;;;;;;6.72;81.48;100182.22;210354;1294;140304;-69
2022/11/05 23:39:03;;;;;;;16.60;9.60;;;;;;;6.70;81.05;100179.09;209201;1287;141944;-69
2022/11/05 23:49:31;;;;;;;12.80;9.10;;;;;;;6.64;81.11;100177.59;206909;1297;140019;-68
2022/11/05 23:54:34;;;;;;;27.50;10.20;;;;;;;6.57;80.93;100175.71;208306;1301;140242;-69
2022/11/05 23:59:38;;;;;;;14.20;8.80;;;;;;;6.50;81.13;100177.35;210203;1293;140312;-68
